Time;durP1;ratioP1;P1;durP2;ratioP2;P2;SDS_P1;SDS_P2;PMS_P1;PMS_P2;Temp;Humidity;BMP_temperature;BMP_pressure;BME280_temperature;BME280_humidity;BME280_pressure;Samples;Min_cycle;Max_cycle;Signal;HPM_P1;HPM_P2
2023/06/17 00:02:18;;;;;;;3.90;2.13;;;;;;;15.94;43.39;99923.84;10490369;28;20048;-65
2023/06/17 00:07:20;;;;;;;3.20;1.98;;;;;;;15.80;43.69;99910.13;10506657;28;20138;-66
2023/06/17 00:12:24;;;;;;;4.47;2.17;;;;;;;15.65;44.33;99928.03;10488969;28;20147;-66
2023/06/17 00:17:26;;;;;;;4.30;2.22;;;;;;;15.52;44.45;99915.94;10503361;28;20056;-66
2023/06/17 00:22:29;;;;;;;4.20;2.10;;;;;;;15.39;44.86;99908.16;10509582;28;20055;-65
2023/06/17 00:27:32;;;;;;;4.32;2.38;;;;;;;15.17;45.33;99910.81;10507978;28;20178;-66
2023/06/17 00:32:34;;;;;;;4.05;2.38;;;;;;;15.18;45.30;99912.50;10489292;28;20059;-66
2023/06/17 00:37:36;;;;;;;4.60;2.40;;;;;;;15.25;45.44;99918.94;10488710;28;20138;-66
2023/06/17 00:42:39;;;;;;;3.95;2.08;;;;;;;15.19;45.33;99917.66;10473549;28;20044;-65
2023/06/17 00:47:42;;;;;;;3.40;2.00;;;;;;;15.09;45.84;99906.16;10502306;28;20109;-66
2023/06/17 00:52:45;;;;;;;3.75;2.10;;;;;;;15.08;46.08;99904.47;10509057;28;20051;-66
2023/06/17 00:57:47;;;;;;;4.50;2.53;;;;;;;14.98;46.15;99910.59;10471773;28;20518;-66
2023/06/17 01:02:50;;;;;;;4.05;2.20;;;;;;;14.96;45.91;99908.06;10471485;28;20048;-66
2023/06/17 01:08:04;;;;;;;4.15;2.35;;;;;;;14.88;47.29;99907.81;10505448;28;20385;-65
2023/06/17 01:13:11;;;;;;;3.95;2.38;;;;;;;14.82;47.08;99902.22;10489757;28;20048;-65
2023/06/17 01:18:17;;;;;;;3.70;2.00;;;;;;;14.69;46.68;99904.13;10502318;28;20079;-66
2023/06/17 01:23:37;;;;;;;4.70;2.33;;;;;;;14.59;47.80;99904.00;10489143;28;20142;-66
2023/06/17 01:28:44;;;;;;;4.38;2.13;;;;;;;14.50;47.20;99902.91;10487023;28;20661;-66
2023/06/17 01:33:49;;;;;;;3.78;2.22;;;;;;;14.39;47.35;99908.09;10507119;28;20048;-66
2023/06/17 01:38:55;;;;;;;6.38;2.20;;;;;;;13.99;48.15;99903.28;10504559;28;20125;-65
2023/06/17 01:43:58;;;;;;;3.63;2.25;;;;;;;14.12;47.89;99910.19;10506870;28;20047;-65
2023/06/17 01:49:00;;;;;;;4.10;2.28;;;;;;;14.24;47.75;99903.16;10504236;28;20044;-65
2023/06/17 01:54:02;;;;;;;3.85;2.45;;;;;;;14.16;47.99;99903.75;10488655;28;20046;-65
2023/06/17 01:59:04;;;;;;;3.35;2.00;;;;;;;14.03;48.24;99900.34;10477071;28;20048;-65
2023/06/17 02:04:06;;;;;;;4.32;2.28;;;;;;;13.97;48.57;99894.69;10510781;28;20051;-65
2023/06/17 02:09:08;;;;;;;4.22;2.40;;;;;;;13.79;48.93;99891.63;10511410;28;20044;-65
2023/06/17 02:14:10;;;;;;;3.28;1.90;;;;;;;13.63;49.35;99897.19;10513101;28;20101;-65
2023/06/17 02:19:12;;;;;;;4.63;2.35;;;;;;;13.66;49.19;99891.69;10472363;28;20160;-65
2023/06/17 02:24:14;;;;;;;4.18;2.20;;;;;;;13.69;49.25;99896.75;10508871;28;20055;-66
2023/06/17 02:29:17;;;;;;;3.80;2.20;;;;;;;13.70;49.29;99887.88;10517344;28;20045;-65
2023/06/17 02:34:19;;;;;;;4.10;2.45;;;;;;;13.71;49.22;99888.72;10486341;28;20048;-65
2023/06/17 02:39:21;;;;;;;4.30;2.28;;;;;;;13.59;49.57;99898.34;10499443;28;20060;-65
2023/06/17 02:44:23;;;;;;;4.80;2.40;;;;;;;13.54;49.69;99895.22;10496587;28;20040;-65
2023/06/17 02:49:25;;;;;;;4.35;2.50;;;;;;;13.44;50.01;99898.59;10499128;28;20068;-66
2023/06/17 02:54:27;;;;;;;5.82;2.10;;;;;;;13.46;49.93;99901.97;10498802;28;20594;-67
2023/06/17 02:59:33;;;;;;;6.05;2.60;;;;;;;13.32;50.30;99896.81;10533168;28;20051;-67
2023/06/17 03:04:35;;;;;;;4.13;2.33;;;;;;;13.22;50.55;99896.66;10496350;28;20052;-68
2023/06/17 03:09:38;;;;;;;3.65;2.08;;;;;;;12.86;50.59;99905.31;10487108;28;20097;-68
2023/06/17 03:14:40;;;;;;;4.25;2.10;;;;;;;12.46;51.73;99905.53;10494621;28;20487;-67
2023/06/17 03:19:46;;;;;;;4.47;2.38;;;;;;;12.72;51.60;99897.56;10507896;28;20135;-67
2023/06/17 03:24:48;;;;;;;4.63;2.50;;;;;;;12.82;51.27;99909.09;10510491;28;20467;-67
2023/06/17 03:29:50;;;;;;;3.63;2.15;;;;;;;12.77;51.58;99911.22;10507608;28;20040;-67
2023/06/17 03:34:52;;;;;;;5.65;2.45;;;;;;;12.86;51.44;99905.31;10509210;28;20521;-68
2023/06/17 03:39:55;;;;;;;5.20;2.50;;;;;;;12.94;51.30;99908.25;10473960;28;20048;-67
2023/06/17 03:44:57;;;;;;;5.22;2.72;;;;;;;12.83;51.50;99912.56;10490986;28;20047;-67
2023/06/17 03:49:59;;;;;;;4.97;2.60;;;;;;;12.66;51.77;99902.41;10490505;28;20048;-67
2023/06/17 03:55:03;;;;;;;3.90;2.33;;;;;;;12.61;51.95;99904.50;10475857;28;20067;-67
2023/06/17 04:00:06;;;;;;;5.47;2.40;;;;;;;12.90;51.66;99904.16;10474798;28;20671;-66
2023/06/17 04:05:15;;;;;;;3.07;2.10;;;;;;;13.20;51.32;99900.34;10510828;28;20048;-67
2023/06/17 04:10:17;;;;;;;4.10;2.30;;;;;;;14.48;50.07;99896.03;10507628;28;20456;-67
2023/06/17 04:15:19;;;;;;;4.57;2.42;;;;;;;16.87;46.34;99872.00;10486839;28;20149;-67
2023/06/17 04:20:25;;;;;;;4.13;2.20;;;;;;;18.74;42.95;99860.13;10505541;28;20555;-66
2023/06/17 04:25:27;;;;;;;3.72;2.20;;;;;;;20.34;40.65;99860.19;10488375;28;20078;-67
2023/06/17 04:30:33;;;;;;;4.97;2.30;;;;;;;21.49;38.55;99856.13;10469087;28;20046;-67
2023/06/17 04:35:35;;;;;;;4.57;2.10;;;;;;;22.29;36.91;99850.88;10472269;28;20075;-67
2023/06/17 04:40:38;;;;;;;3.28;2.08;;;;;;;22.65;36.22;99849.50;10474371;28;20050;-68
2023/06/17 04:45:42;;;;;;;3.72;2.03;;;;;;;23.54;34.85;99848.31;10486296;28;20068;-67
2023/06/17 04:50:45;;;;;;;3.60;2.03;;;;;;;24.37;33.47;99849.22;10522746;28;20040;-67
2023/06/17 04:55:47;;;;;;;3.55;2.17;;;;;;;24.99;32.26;99842.53;10488215;28;20077;-66
2023/06/17 05:00:49;;;;;;;3.58;2.20;;;;;;;25.17;31.60;99853.66;10508562;28;20055;-66
2023/06/17 05:05:55;;;;;;;3.97;2.25;;;;;;;25.20;31.41;99847.13;10489405;28;20052;-68
2023/06/17 05:11:01;;;;;;;3.90;2.30;;;;;;;26.50;30.19;99839.56;10473128;28;20135;-65
2023/06/17 05:16:05;;;;;;;3.33;2.00;;;;;;;27.12;29.07;99842.19;10484734;28;20056;-65
2023/06/17 05:21:12;;;;;;;3.35;2.05;;;;;;;27.55;28.43;99840.09;10488380;28;20138;-65
2023/06/17 05:26:14;;;;;;;3.47;2.15;;;;;;;27.96;27.79;99835.47;10482630;28;20055;-66
2023/06/17 05:31:16;;;;;;;6.72;2.35;;;;;;;26.95;27.98;99846.25;10502985;28;20582;-65
2023/06/17 05:36:18;;;;;;;4.53;2.20;;;;;;;24.48;30.34;99862.13;10485228;28;20054;-66
2023/06/17 05:41:20;;;;;;;3.60;2.00;;;;;;;23.22;31.54;99863.50;10506569;28;20052;-66
2023/06/17 05:46:22;;;;;;;3.80;2.17;;;;;;;22.47;32.54;99864.03;10479645;28;20309;-66
2023/06/17 05:51:26;;;;;;;3.80;2.30;;;;;;;21.75;33.45;99876.31;10484651;28;20051;-68
2023/06/17 05:56:29;;;;;;;4.43;2.42;;;;;;;20.94;34.59;99882.34;10486171;28;20047;-68
2023/06/17 06:01:32;;;;;;;4.50;2.40;;;;;;;20.84;34.94;99878.97;10491881;28;20048;-68
2023/06/17 06:06:34;;;;;;;4.13;2.22;;;;;;;20.76;35.23;99876.25;10479302;28;20188;-67
2023/06/17 06:11:36;;;;;;;3.45;2.10;;;;;;;20.76;35.17;99882.41;10526357;28;21473;-68
2023/06/17 06:16:37;;;;;;;4.32;2.20;;;;;;;20.83;35.39;99878.13;10462730;28;20135;-68
2023/06/17 06:21:40;;;;;;;4.18;2.33;;;;;;;20.88;35.86;99878.50;10512746;28;20135;-67
2023/06/17 06:26:41;;;;;;;5.03;2.15;;;;;;;20.98;35.67;99881.03;10492462;28;20051;-68
2023/06/17 06:31:47;;;;;;;4.15;2.30;;;;;;;21.22;35.55;99877.63;10494773;28;20098;-63
2023/06/17 06:36:51;;;;;;;4.10;2.15;;;;;;;21.28;35.70;99872.50;10476460;28;20463;-63
2023/06/17 06:41:53;;;;;;;3.35;2.10;;;;;;;21.83;35.00;99871.00;10476338;28;20048;-63
2023/06/17 06:47:10;;;;;;;3.83;2.20;;;;;;;22.66;34.37;99874.31;10494309;28;20056;-63
2023/06/17 06:52:12;;;;;;;3.97;2.30;;;;;;;23.73;33.21;99874.56;10509329;28;20052;-64
2023/06/17 06:57:14;;;;;;;3.08;1.98;;;;;;;25.00;32.65;99868.25;10491093;28;20044;-64
2023/06/17 07:02:17;;;;;;;3.95;2.38;;;;;;;26.46;30.83;99857.06;10491141;28;20046;-64
2023/06/17 07:07:19;;;;;;;3.17;1.95;;;;;;;27.38;30.21;99853.91;10509952;28;20052;-61
2023/06/17 07:12:21;;;;;;;3.53;2.25;;;;;;;27.91;29.51;99856.75;10486846;28;20702;-62
2023/06/17 07:17:24;;;;;;;5.65;2.33;;;;;;;29.24;27.97;99859.91;10491925;28;20558;-62
2023/06/17 07:22:26;;;;;;;4.07;2.38;;;;;;;29.70;27.58;99857.88;10490130;28;20095;-62
2023/06/17 07:27:27;;;;;;;3.05;1.92;;;;;;;29.77;26.81;99848.69;10503077;28;20121;-62
2023/06/17 07:32:29;;;;;;;4.00;2.05;;;;;;;29.79;26.92;99846.59;10486299;28;20131;-62
2023/06/17 07:37:31;;;;;;;3.90;2.17;;;;;;;30.44;26.14;99841.75;10472900;28;20518;-62
2023/06/17 07:42:35;;;;;;;3.70;2.35;;;;;;;30.42;24.97;99841.13;10468349;28;20048;-62
2023/06/17 07:47:37;;;;;;;2.80;1.95;;;;;;;30.55;25.04;99833.78;10505553;28;20092;-63
2023/06/17 07:52:39;;;;;;;3.08;1.95;;;;;;;31.49;24.19;99827.94;10508317;28;20040;-62
2023/06/17 07:57:41;;;;;;;3.95;2.25;;;;;;;31.79;24.16;99828.72;10504062;28;20093;-63
2023/06/17 08:02:43;;;;;;;3.80;2.40;;;;;;;32.05;23.54;99827.50;10489758;28;20036;-63
2023/06/17 08:07:47;;;;;;;4.05;2.20;;;;;;;31.82;22.67;99824.75;10502064;28;20464;-63
2023/06/17 08:12:52;;;;;;;3.95;2.25;;;;;;;31.83;23.59;99823.66;10477237;28;20110;-63
2023/06/17 08:17:54;;;;;;;3.33;1.98;;;;;;;31.72;22.80;99819.06;10499564;28;20204;-63
2023/06/17 08:22:56;;;;;;;3.45;2.08;;;;;;;31.66;23.00;99817.28;10504842;28;20214;-62
2023/06/17 08:27:58;;;;;;;4.28;2.08;;;;;;;31.15;23.28;99813.16;10501791;28;20177;-63
2023/06/17 08:33:00;;;;;;;4.05;2.00;;;;;;;31.33;23.24;99807.72;10505171;28;20173;-63
2023/06/17 08:38:02;;;;;;;3.08;2.00;;;;;;;31.27;23.18;99802.44;10483515;28;20438;-63
2023/06/17 08:43:04;;;;;;;3.17;2.20;;;;;;;31.00;23.49;99796.53;10500089;28;20052;-63
2023/06/17 08:48:07;;;;;;;3.40;2.10;;;;;;;31.18;23.77;99792.97;10473554;28;20882;-63
2023/06/17 08:53:09;;;;;;;4.40;2.42;;;;;;;30.91;23.24;99794.31;10502299;28;20119;-63
2023/06/17 08:58:11;;;;;;;3.88;2.15;;;;;;;31.16;22.96;99784.28;10488871;28;20175;-63
2023/06/17 09:03:16;;;;;;;3.63;2.10;;;;;;;31.37;22.47;99789.19;10492506;28;20075;-63
2023/06/17 09:08:18;;;;;;;3.55;2.10;;;;;;;31.68;22.82;99775.41;10488421;28;20058;-63
2023/06/17 09:13:20;;;;;;;3.45;2.30;;;;;;;31.72;21.92;99776.59;10488715;28;20148;-62
2023/06/17 09:18:22;;;;;;;4.53;2.55;;;;;;;31.42;23.14;99770.38;10492009;28;20083;-64
2023/06/17 09:23:24;;;;;;;5.97;2.00;;;;;;;31.38;22.57;99766.50;10472835;28;20040;-63
2023/06/17 09:28:27;;;;;;;4.32;2.20;;;;;;;31.19;22.90;99763.03;10472954;28;20055;-63
2023/06/17 09:33:29;;;;;;;3.70;2.00;;;;;;;30.98;22.84;99760.00;10499922;28;20044;-63
2023/06/17 09:38:31;;;;;;;3.85;2.05;;;;;;;31.16;22.35;99757.25;10501633;28;20125;-63
2023/06/17 09:43:33;;;;;;;4.47;1.95;;;;;;;31.23;21.59;99749.91;10504502;28;20133;-64
2023/06/17 09:48:40;;;;;;;3.00;1.98;;;;;;;31.88;20.85;99745.38;10496796;28;20504;-64
2023/06/17 09:53:47;;;;;;;3.30;2.00;;;;;;;31.37;20.62;99737.84;10499999;28;20127;-64
2023/06/17 09:58:50;;;;;;;2.75;1.77;;;;;;;31.15;20.64;99751.03;10492528;28;20139;-64
2023/06/17 10:03:52;;;;;;;3.78;1.90;;;;;;;30.54;21.08;99734.94;10501321;28;20698;-64
2023/06/17 10:08:55;;;;;;;2.78;1.88;;;;;;;31.05;20.66;99731.00;10500643;28;20381;-64
2023/06/17 10:14:05;;;;;;;4.32;1.80;;;;;;;31.41;20.30;99736.31;10503714;28;20097;-64
2023/06/17 10:19:11;;;;;;;3.00;1.80;;;;;;;31.32;20.17;99733.13;10501741;28;20118;-64
2023/06/17 10:24:15;;;;;;;2.97;1.77;;;;;;;30.47;20.58;99742.31;10503277;28;20399;-64
2023/06/17 10:29:17;;;;;;;2.65;1.63;;;;;;;30.18;20.53;99743.00;10478239;28;20124;-64
2023/06/17 10:34:22;;;;;;;3.80;2.00;;;;;;;30.73;19.44;99745.72;10499009;28;20043;-64
2023/06/17 10:39:24;;;;;;;4.40;2.10;;;;;;;30.67;19.97;99740.19;10500033;28;20117;-64
2023/06/17 10:44:35;;;;;;;3.55;1.75;;;;;;;29.96;19.49;99741.75;10501757;28;20044;-64
2023/06/17 10:49:41;;;;;;;2.90;1.83;;;;;;;29.57;20.06;99737.50;10501753;28;20125;-64
2023/06/17 10:54:48;;;;;;;4.13;2.10;;;;;;;29.24;20.53;99742.22;10502700;28;20044;-64
2023/06/17 10:59:50;;;;;;;3.00;1.75;;;;;;;29.34;20.72;99739.06;10506070;28;20535;-64
2023/06/17 11:04:54;;;;;;;3.00;1.73;;;;;;;29.16;21.21;99728.19;10506905;28;20051;-64
2023/06/17 11:09:57;;;;;;;2.63;1.80;;;;;;;29.25;20.90;99726.91;10503338;28;20044;-64
2023/06/17 11:14:59;;;;;;;3.13;2.05;;;;;;;29.09;20.90;99734.44;10507332;28;20877;-64
2023/06/17 11:20:05;;;;;;;3.30;2.15;;;;;;;29.22;20.90;99724.63;10507196;28;20039;-64
2023/06/17 11:25:09;;;;;;;3.22;1.88;;;;;;;29.36;20.68;99723.53;10509469;28;20040;-64
2023/06/17 11:30:13;;;;;;;3.72;1.90;;;;;;;29.65;20.54;99717.50;10503650;28;20052;-63
2023/06/17 11:35:15;;;;;;;2.92;1.80;;;;;;;29.76;20.36;99706.84;10503251;28;20048;-64
2023/06/17 11:40:17;;;;;;;4.30;1.98;;;;;;;29.36;20.46;99704.66;10508816;28;20048;-64
2023/06/17 11:45:20;;;;;;;3.08;1.73;;;;;;;29.37;20.78;99695.53;10488962;28;20044;-63
2023/06/17 11:50:28;;;;;;;2.28;1.48;;;;;;;29.28;20.28;99691.44;10486705;28;20462;-63
2023/06/17 11:55:34;;;;;;;3.70;1.75;;;;;;;28.79;21.39;99700.19;10504753;28;20139;-63
2023/06/17 12:00:36;;;;;;;3.17;2.00;;;;;;;28.81;21.81;99695.41;10505921;28;20091;-63
2023/06/17 12:05:38;;;;;;;3.88;2.03;;;;;;;29.11;21.58;99680.38;10505838;28;20131;-63
2023/06/17 12:10:40;;;;;;;3.25;2.05;;;;;;;28.73;21.43;99688.41;10506161;28;20048;-63
2023/06/17 12:15:42;;;;;;;4.93;2.17;;;;;;;28.97;21.14;99689.59;10506469;28;20060;-63
2023/06/17 12:20:48;;;;;;;3.15;2.00;;;;;;;29.24;20.76;99674.06;10506127;28;20885;-64
2023/06/17 12:25:50;;;;;;;2.88;1.90;;;;;;;29.08;21.73;99670.88;10504706;28;20132;-64
2023/06/17 12:30:52;;;;;;;3.85;2.05;;;;;;;28.97;20.17;99668.84;10504253;28;20131;-65
2023/06/17 12:35:54;;;;;;;3.72;1.88;;;;;;;29.12;21.24;99659.63;10483905;28;20458;-64
2023/06/17 12:40:57;;;;;;;2.95;1.77;;;;;;;29.19;20.44;99653.19;10519848;28;20040;-64
2023/06/17 12:45:59;;;;;;;2.72;1.73;;;;;;;29.32;20.32;99649.53;10481153;28;20177;-64
2023/06/17 12:51:05;;;;;;;3.63;1.83;;;;;;;29.46;19.85;99654.66;10503737;28;20056;-64
2023/06/17 12:56:07;;;;;;;4.00;1.75;;;;;;;29.21;20.17;99647.56;10501081;28;20209;-65
2023/06/17 13:01:08;;;;;;;3.15;1.90;;;;;;;29.30;20.74;99643.56;10504796;28;20055;-64
2023/06/17 13:06:11;;;;;;;2.85;1.75;;;;;;;29.55;20.00;99636.34;10484759;28;20506;-65
2023/06/17 13:11:12;;;;;;;3.08;1.80;;;;;;;29.45;19.71;99647.63;10504795;28;20054;-64
2023/06/17 13:16:15;;;;;;;3.00;1.75;;;;;;;28.93;20.00;99642.59;10491725;28;20158;-65
2023/06/17 13:21:16;;;;;;;3.05;1.85;;;;;;;28.87;20.49;99633.50;10485832;28;20143;-65
2023/06/17 13:26:22;;;;;;;3.38;2.00;;;;;;;28.98;20.49;99632.00;10496346;28;20131;-65
2023/06/17 13:31:24;;;;;;;3.00;1.80;;;;;;;29.04;20.95;99626.56;10498620;28;20051;-65
2023/06/17 13:36:25;;;;;;;2.65;1.85;;;;;;;29.20;20.38;99624.38;10494909;28;20052;-65
2023/06/17 13:41:30;;;;;;;3.40;1.90;;;;;;;29.23;20.64;99618.56;10475642;28;20033;-65
2023/06/17 13:46:32;;;;;;;3.65;1.98;;;;;;;29.42;20.15;99615.72;10458302;28;20302;-65
2023/06/17 13:51:35;;;;;;;3.83;1.70;;;;;;;29.19;20.66;99623.56;10497781;28;20385;-65
2023/06/17 13:56:37;;;;;;;3.08;2.00;;;;;;;28.98;20.07;99619.34;10493003;28;20043;-64
2023/06/17 14:01:39;;;;;;;2.75;1.75;;;;;;;29.13;20.30;99618.22;10496920;28;20134;-65
2023/06/17 14:06:45;;;;;;;3.05;1.73;;;;;;;29.25;20.07;99616.47;10496488;28;20052;-64
2023/06/17 14:11:49;;;;;;;4.57;1.75;;;;;;;29.35;19.67;99603.31;10504116;28;20040;-63
2023/06/17 14:16:51;;;;;;;2.92;1.60;;;;;;;29.15;19.65;99599.97;10495732;28;20052;-63
2023/06/17 14:22:00;;;;;;;3.15;1.77;;;;;;;29.11;19.77;99604.16;10503221;28;20051;-63
2023/06/17 14:27:25;;;;;;;3.83;1.60;;;;;;;29.32;18.83;99596.50;10506939;28;20054;-64
2023/06/17 14:32:27;;;;;;;3.47;1.70;;;;;;;29.46;19.02;99594.56;10506736;28;20048;-64
2023/06/17 14:37:29;;;;;;;3.17;1.60;;;;;;;29.50;18.71;99588.47;10508917;28;20048;-64
2023/06/17 14:42:31;;;;;;;2.85;1.60;;;;;;;29.46;18.57;99578.41;10507360;28;20048;-64
2023/06/17 14:47:34;;;;;;;2.78;1.33;;;;;;;29.38;18.55;99579.44;10508014;28;20139;-64
2023/06/17 14:52:36;;;;;;;2.88;1.70;;;;;;;29.33;18.79;99578.47;10507208;28;20052;-64
2023/06/17 14:57:37;;;;;;;2.90;1.70;;;;;;;29.34;18.66;99561.25;10512025;28;20106;-63
2023/06/17 15:02:54;;;;;;;4.40;1.65;;;;;;;29.30;18.81;99570.81;10524377;28;20565;-64
2023/06/17 15:07:56;;;;;;;2.90;1.50;;;;;;;29.40;19.35;99572.00;10513134;28;20466;-63
2023/06/17 15:12:58;;;;;;;4.57;1.45;;;;;;;29.51;19.11;99578.53;10507850;28;20134;-64
2023/06/17 15:17:59;;;;;;;2.97;1.70;;;;;;;29.53;19.03;99568.34;10512822;28;20079;-64
2023/06/17 15:23:02;;;;;;;2.78;1.58;;;;;;;29.45;19.10;99568.66;10508443;28;20055;-64
2023/06/17 15:28:04;;;;;;;2.22;1.50;;;;;;;29.52;19.04;99559.44;10522252;28;20189;-64
2023/06/17 15:33:06;;;;;;;3.00;1.80;;;;;;;29.53;19.34;99565.66;10503542;28;20605;-64
2023/06/17 15:38:08;;;;;;;5.15;2.20;;;;;;;29.64;19.11;99571.13;10511019;28;20151;-64
2023/06/17 15:43:16;;;;;;;3.33;1.80;;;;;;;29.54;18.25;99562.75;10503670;28;20177;-64
2023/06/17 15:48:18;;;;;;;2.70;1.75;;;;;;;29.28;19.49;99567.53;10509496;28;20052;-64
2023/06/17 15:53:20;;;;;;;3.08;1.88;;;;;;;29.50;19.13;99563.44;10487558;28;20043;-64
2023/06/17 15:58:21;;;;;;;2.97;2.10;;;;;;;29.70;19.35;99555.97;10523987;28;20134;-64
2023/06/17 16:03:28;;;;;;;3.70;1.70;;;;;;;29.61;19.29;99559.97;10504931;28;20124;-63
2023/06/17 16:08:30;;;;;;;3.10;1.70;;;;;;;29.75;19.36;99558.78;10507268;28;20055;-63
2023/06/17 16:13:31;;;;;;;3.55;1.70;;;;;;;29.58;19.26;99563.94;10473309;28;20497;-63
2023/06/17 16:18:33;;;;;;;2.78;1.73;;;;;;;29.44;19.35;99551.66;10483608;28;20454;-63
2023/06/17 16:23:35;;;;;;;3.22;1.70;;;;;;;29.16;19.68;99550.44;10488431;28;20134;-63
2023/06/17 16:28:38;;;;;;;3.03;1.80;;;;;;;29.02;19.94;99549.72;10503749;28;20081;-63
2023/06/17 16:33:40;;;;;;;3.20;1.70;;;;;;;28.94;19.87;99541.94;10485136;28;20040;-63
2023/06/17 16:38:42;;;;;;;2.85;1.80;;;;;;;29.08;19.65;99552.38;10507253;28;20139;-63
2023/06/17 16:43:43;;;;;;;2.83;1.73;;;;;;;29.07;19.58;99548.00;10502345;28;20085;-63
2023/06/17 16:48:45;;;;;;;2.83;1.60;;;;;;;29.01;20.08;99554.28;10485636;28;20379;-63
2023/06/17 16:53:47;;;;;;;3.03;1.73;;;;;;;28.92;19.87;99547.53;10465315;28;20043;-63
2023/06/17 16:58:49;;;;;;;3.63;2.10;;;;;;;28.81;19.85;99555.44;10505805;28;20174;-63
2023/06/17 17:03:50;;;;;;;3.22;1.80;;;;;;;28.66;20.05;99550.38;10473236;28;20581;-63
2023/06/17 17:08:54;;;;;;;3.15;1.92;;;;;;;28.39;20.20;99561.50;10469629;28;20530;-63
2023/06/17 17:13:56;;;;;;;2.83;1.80;;;;;;;28.21;20.47;99562.19;10494753;28;20075;-63
2023/06/17 17:18:58;;;;;;;4.97;1.73;;;;;;;28.13;20.83;99565.97;10504459;28;20506;-63
2023/06/17 17:24:01;;;;;;;3.00;1.70;;;;;;;28.15;21.15;99563.06;10501040;28;20048;-63
2023/06/17 17:29:07;;;;;;;3.30;1.92;;;;;;;27.99;21.51;99571.59;10471135;28;20088;-63
2023/06/17 17:34:08;;;;;;;5.20;1.83;;;;;;;27.90;21.37;99570.16;10501847;28;20048;-63
2023/06/17 17:39:10;;;;;;;3.38;1.98;;;;;;;27.73;21.44;99571.69;10470875;28;20048;-63
2023/06/17 17:44:12;;;;;;;3.25;2.00;;;;;;;27.52;21.67;99573.53;10501084;28;20630;-63
2023/06/17 17:49:14;;;;;;;2.55;1.63;;;;;;;27.49;22.31;99584.69;10507073;28;20052;-63
2023/06/17 17:54:15;;;;;;;3.17;1.95;;;;;;;27.34;22.73;99583.28;10502237;28;20189;-63
2023/06/17 17:59:17;;;;;;;3.45;1.98;;;;;;;27.10;23.12;99587.38;10507203;28;20040;-63
2023/06/17 18:04:19;;;;;;;4.05;1.80;;;;;;;26.90;23.81;99583.00;10499379;28;20111;-60
2023/06/17 18:09:21;;;;;;;3.05;1.77;;;;;;;26.79;24.19;99595.19;10508733;28;20056;-61
2023/06/17 18:14:23;;;;;;;4.68;1.83;;;;;;;26.71;24.56;99592.69;10505944;28;20149;-61
2023/06/17 18:19:25;;;;;;;3.40;2.08;;;;;;;26.48;25.31;99590.34;10513737;28;20138;-62
2023/06/17 18:24:26;;;;;;;3.40;2.00;;;;;;;26.32;25.79;99596.03;10510242;28;20101;-61
2023/06/17 18:29:28;;;;;;;4.10;2.00;;;;;;;26.01;26.46;99601.06;10505268;28;20415;-61
2023/06/17 18:34:30;;;;;;;3.45;2.03;;;;;;;25.76;27.24;99592.66;10507806;28;20295;-62
2023/06/17 18:39:32;;;;;;;3.53;2.03;;;;;;;25.55;27.67;99602.63;10511555;28;20043;-62
2023/06/17 18:44:34;;;;;;;3.97;2.25;;;;;;;25.32;28.07;99599.31;10508644;28;20127;-62
2023/06/17 18:49:36;;;;;;;3.33;2.08;;;;;;;25.12;28.45;99604.53;10507775;28;20604;-62
2023/06/17 18:54:38;;;;;;;3.13;1.77;;;;;;;24.98;28.71;99602.72;10488059;28;20052;-64
2023/06/17 18:59:40;;;;;;;3.65;2.10;;;;;;;24.74;29.23;99600.41;10477816;28;20101;-64
2023/06/17 19:04:42;;;;;;;3.03;1.90;;;;;;;24.41;30.04;99605.38;10501969;28;20067;-63
2023/06/17 19:09:43;;;;;;;3.78;2.20;;;;;;;24.26;30.23;99628.66;10509222;28;20055;-64
2023/06/17 19:14:45;;;;;;;5.28;1.90;;;;;;;24.06;30.44;99627.53;10503588;28;20138;-64
2023/06/17 19:19:47;;;;;;;4.15;2.00;;;;;;;23.77;30.70;99641.72;10520627;28;21282;-63
2023/06/17 19:24:51;;;;;;;3.45;1.90;;;;;;;23.60;31.30;99642.88;10488624;28;20464;-64
2023/06/17 19:29:58;;;;;;;3.70;2.10;;;;;;;23.48;32.20;99638.97;10510610;28;20491;-64
2023/06/17 19:35:00;;;;;;;3.70;2.00;;;;;;;23.23;32.21;99642.84;10487753;28;20048;-64
2023/06/17 19:40:02;;;;;;;3.97;2.13;;;;;;;23.02;32.45;99642.69;10510100;28;20518;-64
2023/06/17 19:45:04;;;;;;;3.08;1.80;;;;;;;22.82;32.75;99641.50;10500640;28;20586;-64
2023/06/17 19:50:07;;;;;;;3.00;1.80;;;;;;;22.46;33.38;99650.00;10508073;28;20496;-65
2023/06/17 19:55:09;;;;;;;3.13;2.00;;;;;;;22.14;33.93;99655.47;10505317;28;20327;-65
2023/06/17 20:00:12;;;;;;;3.78;2.15;;;;;;;21.89;34.49;99667.13;10488727;28;20097;-64
2023/06/17 20:05:15;;;;;;;3.15;2.10;;;;;;;21.76;34.67;99669.50;10506169;28;20044;-64
2023/06/17 20:10:17;;;;;;;4.25;2.20;;;;;;;21.57;34.91;99677.84;10456741;28;20117;-65
2023/06/17 20:15:19;;;;;;;4.15;2.10;;;;;;;21.43;35.00;99678.53;10501572;28;20048;-64
2023/06/17 20:20:21;;;;;;;4.40;1.90;;;;;;;21.30;35.57;99678.97;10506978;28;20412;-63
2023/06/17 20:25:23;;;;;;;3.45;2.08;;;;;;;21.17;35.54;99677.81;10503462;28;20560;-64
2023/06/17 20:30:25;;;;;;;4.15;2.00;;;;;;;20.99;35.83;99681.44;10507977;28;20101;-65
2023/06/17 20:35:27;;;;;;;3.75;1.90;;;;;;;20.79;36.31;99680.09;10500129;28;20872;-67
2023/06/17 20:40:29;;;;;;;4.25;2.40;;;;;;;20.70;36.41;99683.69;10487386;28;20507;-63
2023/06/17 20:45:31;;;;;;;4.35;2.17;;;;;;;20.53;36.64;99684.63;10504671;28;20052;-63
2023/06/17 20:50:33;;;;;;;3.92;2.22;;;;;;;20.50;36.75;99690.25;10507768;28;20129;-65
2023/06/17 20:55:35;;;;;;;4.25;2.30;;;;;;;20.41;37.12;99685.06;10504833;28;20113;-66
2023/06/17 21:00:37;;;;;;;3.60;2.00;;;;;;;20.29;37.25;99681.88;10503806;28;20438;-65
2023/06/17 21:05:39;;;;;;;4.65;2.30;;;;;;;20.08;37.63;99678.78;10502276;28;20426;-66
2023/06/17 21:10:41;;;;;;;4.43;2.20;;;;;;;19.91;37.92;99682.34;10506762;28;20048;-63
2023/06/17 21:15:42;;;;;;;3.45;2.17;;;;;;;19.76;38.23;99687.38;10476356;28;20079;-65
2023/06/17 21:20:44;;;;;;;3.63;2.17;;;;;;;19.71;38.36;99689.63;10500185;28;20040;-65
2023/06/17 21:25:46;;;;;;;5.10;2.45;;;;;;;19.70;38.55;99681.84;10502939;28;20048;-65
2023/06/17 21:30:48;;;;;;;4.47;2.35;;;;;;;19.64;38.49;99696.56;10506693;28;20078;-64
2023/06/17 21:35:50;;;;;;;6.22;2.20;;;;;;;19.47;38.57;99694.75;10506312;28;20074;-64
2023/06/17 21:40:51;;;;;;;3.38;2.10;;;;;;;19.38;38.66;99691.22;10507865;28;20085;-64
2023/06/17 21:45:53;;;;;;;3.90;2.30;;;;;;;19.25;39.11;99690.78;10506787;28;20040;-64
2023/06/17 21:50:55;;;;;;;4.18;2.17;;;;;;;19.19;38.94;99694.03;10489989;28;20044;-65
2023/06/17 21:55:57;;;;;;;4.10;2.20;;;;;;;19.04;39.40;99692.88;10505994;28;20068;-64
2023/06/17 22:00:59;;;;;;;4.45;2.03;;;;;;;18.88;39.36;99697.16;10477782;28;20385;-65
2023/06/17 22:06:01;;;;;;;4.20;2.20;;;;;;;18.70;40.09;99697.16;10506303;28;20492;-64
2023/06/17 22:11:03;;;;;;;3.85;2.30;;;;;;;18.64;40.36;99697.75;10506012;28;20044;-65
2023/06/17 22:16:05;;;;;;;4.07;2.10;;;;;;;18.56;40.12;99700.28;10488274;28;20044;-64
2023/06/17 22:21:06;;;;;;;5.18;2.00;;;;;;;18.47;40.11;99694.06;10506997;28;20559;-64
2023/06/17 22:26:08;;;;;;;3.55;2.22;;;;;;;18.42;40.42;99701.59;10507982;28;20052;-65
2023/06/17 22:31:10;;;;;;;4.43;2.28;;;;;;;18.26;40.84;99697.94;10508630;28;20319;-64
2023/06/17 22:36:12;;;;;;;3.38;2.10;;;;;;;18.12;41.45;99695.72;10507580;28;20702;-64
2023/06/17 22:41:14;;;;;;;3.33;2.05;;;;;;;17.95;41.57;99697.31;10481384;28;20147;-64
2023/06/17 22:46:15;;;;;;;6.65;2.38;;;;;;;17.78;41.80;99701.53;10513953;28;20355;-64
2023/06/17 22:51:17;;;;;;;3.97;2.10;;;;;;;17.75;41.58;99690.41;10514549;28;20044;-64
2023/06/17 22:56:19;;;;;;;4.60;2.40;;;;;;;17.68;41.83;99684.84;10516099;28;20079;-65
2023/06/17 23:01:21;;;;;;;4.40;2.30;;;;;;;17.61;41.82;99698.75;10515382;28;20170;-64
2023/06/17 23:06:25;;;;;;;3.85;2.25;;;;;;;17.37;42.16;99708.97;10514646;28;20097;-64
2023/06/17 23:11:27;;;;;;;4.07;2.10;;;;;;;17.12;42.64;99704.22;10513804;28;20040;-64
2023/06/17 23:16:29;;;;;;;4.40;2.20;;;;;;;17.19;42.66;99711.44;10513919;28;20660;-64
2023/06/17 23:21:33;;;;;;;3.70;2.13;;;;;;;17.11;42.96;99703.38;10514198;28;20076;-64
2023/06/17 23:26:35;;;;;;;4.05;2.50;;;;;;;17.08;42.89;99714.19;10513322;28;20047;-64